Time;durP1;ratioP1;P1;durP2;ratioP2;P2;SDS_P1;SDS_P2;PMS_P1;PMS_P2;Temp;Humidity;BMP_temperature;BMP_pressure;BME280_temperature;BME280_humidity;BME280_pressure;Samples;Min_cycle;Max_cycle;Signal;HPM_P1;HPM_P2
2023/04/10 04:44:30;;;;;;;37.50;21.30;;;;;;;7.80;100.00;100616.07;109809;1275;22460;-53
2023/04/10 04:47:10;;;;;;;28.50;18.00;;;;;;;7.81;100.00;100620.08;109692;1274;22414;-44
2023/04/10 04:50:14;;;;;;;29.00;18.80;;;;;;;7.83;100.00;100623.94;107480;1289;22562;-46
2023/04/10 04:53:02;;;;;;;30.60;17.80;;;;;;;7.83;100.00;100624.65;106889;1283;22538;-46
2023/04/10 04:55:42;;;;;;;32.30;18.20;;;;;;;7.84;100.00;100621.52;106913;1283;22534;-56
2023/04/10 04:58:29;;;;;;;33.40;20.10;;;;;;;7.88;100.00;100628.00;106368;1285;22618;-54
2023/04/10 05:01:29;;;;;;;28.80;19.00;;;;;;;7.93;100.00;100629.84;107102;1283;23916;-55
2023/04/10 05:04:23;;;;;;;36.30;21.30;;;;;;;7.95;100.00;100630.73;109186;1286;22427;-56
2023/04/10 05:07:14;;;;;;;33.90;20.10;;;;;;;7.95;100.00;100632.48;108612;1283;22412;-56
2023/04/10 05:10:01;;;;;;;42.10;22.70;;;;;;;7.97;100.00;100633.54;109211;1283;22704;-46
2023/04/10 05:12:40;;;;;;;40.50;25.30;;;;;;;7.98;100.00;100633.90;109059;1284;23320;-46
2023/04/10 05:15:27;;;;;;;33.20;22.40;;;;;;;8.04;100.00;100629.31;107740;1284;22582;-55
2023/04/10 05:18:22;;;;;;;37.40;22.20;;;;;;;8.13;100.00;100627.17;109145;1283;23205;-55
2023/04/10 05:21:20;;;;;;;37.80;22.60;;;;;;;8.23;100.00;100635.67;107507;1289;22230;-57
2023/04/10 05:24:12;;;;;;;34.10;21.00;;;;;;;8.32;100.00;100636.50;108506;1287;22340;-55
2023/04/10 05:27:11;;;;;;;41.80;25.00;;;;;;;8.33;100.00;100643.64;109104;1281;22353;-45
2023/04/10 05:30:07;;;;;;;39.70;22.30;;;;;;;8.34;100.00;100642.09;108924;1287;22409;-52
2023/04/10 05:32:59;;;;;;;39.20;21.20;;;;;;;8.35;100.00;100652.02;108442;1280;23300;-56
2023/04/10 05:35:48;;;;;;;39.10;23.10;;;;;;;8.34;100.00;100649.91;108358;1280;23993;-45
2023/04/10 05:38:42;;;;;;;41.80;25.20;;;;;;;8.31;100.00;100654.56;108604;1284;22437;-56
2023/04/10 05:41:32;;;;;;;35.00;22.90;;;;;;;8.31;100.00;100657.52;109039;1280;22390;-47
2023/04/10 05:44:26;;;;;;;43.40;25.00;;;;;;;8.27;100.00;100659.71;109118;1281;22788;-56
2023/04/10 05:47:00;;;;;;;37.40;23.30;;;;;;;8.23;100.00;100656.02;109083;1283;23292;-56
2023/04/10 05:50:01;;;;;;;39.00;24.40;;;;;;;8.20;100.00;100660.31;108844;1282;23144;-54
2023/04/10 05:52:53;;;;;;;35.10;23.10;;;;;;;8.19;100.00;100660.13;108997;1280;22417;-56
2023/04/10 05:55:35;;;;;;;40.00;23.40;;;;;;;8.20;100.00;100659.61;108729;1281;24578;-55
2023/04/10 05:58:17;;;;;;;32.60;19.20;;;;;;;8.22;100.00;100656.86;108801;1282;22531;-54
2023/04/10 06:01:23;;;;;;;25.30;17.00;;;;;;;8.29;100.00;100662.00;108786;1279;22293;-45
2023/04/10 06:03:58;;;;;;;22.60;15.10;;;;;;;8.34;100.00;100667.29;108697;1278;22902;-55
2023/04/10 06:06:32;;;;;;;19.90;15.30;;;;;;;8.38;100.00;100668.08;108117;1275;22685;-47
2023/04/10 06:09:01;;;;;;;19.50;14.10;;;;;;;8.40;100.00;100665.69;108781;1275;22434;-47
2023/04/10 06:11:30;;;;;;;21.80;15.80;;;;;;;8.45;100.00;100667.33;107684;1275;22609;-47
2023/04/10 06:13:59;;;;;;;18.70;14.10;;;;;;;8.53;100.00;100676.46;109246;1275;23154;-55
2023/04/10 06:16:47;;;;;;;22.20;16.50;;;;;;;8.62;100.00;100676.96;109153;1276;23266;-57
2023/04/10 06:19:20;;;;;;;27.70;17.90;;;;;;;8.80;100.00;100676.16;108877;1272;22322;-46
2023/04/10 06:21:48;;;;;;;27.60;18.30;;;;;;;9.01;100.00;100673.98;109453;1274;23336;-46
2023/04/10 06:24:17;;;;;;;28.70;18.90;;;;;;;9.24;100.00;100672.00;109693;1278;22737;-55
2023/04/10 06:26:52;;;;;;;25.70;16.40;;;;;;;9.47;100.00;100670.15;108835;1274;22191;-55
2023/04/10 06:29:20;;;;;;;29.10;17.40;;;;;;;9.67;100.00;100669.13;109467;1275;23139;-46
2023/04/10 06:31:50;;;;;;;24.80;16.80;;;;;;;9.86;100.00;100667.92;109706;1275;22402;-45
2023/04/10 06:34:19;;;;;;;24.20;16.80;;;;;;;10.08;100.00;100665.31;109669;1275;22389;-47
2023/04/10 06:36:59;;;;;;;22.30;15.20;;;;;;;10.30;100.00;100663.59;109392;1274;22537;-46
2023/04/10 06:39:29;;;;;;;20.20;15.10;;;;;;;10.45;100.00;100663.34;109567;1274;22272;-46
2023/04/10 06:41:58;;;;;;;24.20;15.40;;;;;;;10.51;100.00;100666.88;109762;1273;22399;-55
2023/04/10 06:44:44;;;;;;;22.10;15.00;;;;;;;10.52;100.00;100666.00;109740;1274;23079;-55
2023/04/10 06:47:12;;;;;;;22.60;15.30;;;;;;;10.56;100.00;100663.59;109775;1279;22393;-54
2023/04/10 06:49:48;;;;;;;24.30;14.90;;;;;;;10.62;100.00;100663.79;109443;1274;22411;-55
2023/04/10 06:52:17;;;;;;;22.50;14.20;;;;;;;10.74;100.00;100660.72;109311;1273;23066;-56
2023/04/10 06:54:45;;;;;;;18.20;14.40;;;;;;;10.86;100.00;100660.42;109768;1275;22340;-55
2023/04/10 06:57:14;;;;;;;21.40;14.80;;;;;;;10.97;100.00;100662.05;108787;1274;22461;-55
2023/04/10 06:59:44;;;;;;;18.90;13.60;;;;;;;11.11;100.00;100657.04;109773;1274;22189;-55
2023/04/10 07:02:12;;;;;;;18.70;13.10;;;;;;;11.27;100.00;100650.63;109441;1266;23102;-45
2023/04/10 07:04:42;;;;;;;21.40;14.40;;;;;;;11.36;100.00;100648.91;109324;1275;22671;-55
2023/04/10 07:07:18;;;;;;;17.70;12.90;;;;;;;11.37;100.00;100649.27;109500;1274;22402;-45
2023/04/10 07:09:47;;;;;;;22.00;13.60;;;;;;;11.39;100.00;100653.63;109493;1273;22457;-59
2023/04/10 07:12:24;;;;;;;19.20;13.40;;;;;;;11.45;100.00;100661.15;109142;1274;23723;-45
2023/04/10 07:15:02;;;;;;;15.60;12.60;;;;;;;11.50;100.00;100657.14;109530;1273;23078;-55
2023/04/10 07:17:31;;;;;;;17.50;13.20;;;;;;;11.53;100.00;100658.72;109627;1274;22518;-55
2023/04/10 07:19:59;;;;;;;15.40;12.50;;;;;;;11.58;100.00;100660.13;109679;1275;22625;-55
2023/04/10 07:22:29;;;;;;;16.40;12.80;;;;;;;11.62;100.00;100666.77;109583;1279;23064;-54
2023/04/10 07:24:58;;;;;;;16.80;13.10;;;;;;;11.62;100.00;100667.13;109635;1278;22371;-55
2023/04/10 07:27:29;;;;;;;16.90;13.60;;;;;;;11.60;100.00;100666.07;109694;1276;22341;-46
2023/04/10 07:29:57;;;;;;;17.20;12.60;;;;;;;11.61;100.00;100667.48;109463;1276;22369;-55
2023/04/10 07:32:26;;;;;;;15.20;10.00;;;;;;;11.65;100.00;100669.05;109302;1279;22994;-47
2023/04/10 07:34:54;;;;;;;17.20;10.00;;;;;;;11.66;100.00;100668.70;109648;1274;23598;-45
2023/04/10 07:37:25;;;;;;;12.20;9.40;;;;;;;11.70;100.00;100668.88;109261;1274;22616;-45
2023/04/10 07:39:59;;;;;;;13.30;10.40;;;;;;;11.79;100.00;100666.98;108497;1281;23153;-45
2023/04/10 07:42:28;;;;;;;12.50;10.00;;;;;;;11.91;100.00;100667.89;109577;1276;22405;-46
2023/04/10 07:44:58;;;;;;;12.90;9.70;;;;;;;12.04;100.00;100674.17;109693;1275;22689;-45
2023/04/10 07:47:27;;;;;;;15.50;9.30;;;;;;;12.12;100.00;100672.95;109725;1278;22328;-46
2023/04/10 07:49:55;;;;;;;13.50;10.00;;;;;;;12.17;100.00;100670.85;109414;1281;22466;-46
2023/04/10 07:52:24;;;;;;;9.70;8.10;;;;;;;12.20;100.00;100669.29;108822;1278;22481;-47
2023/04/10 07:54:52;;;;;;;13.10;9.60;;;;;;;12.23;100.00;100669.09;109607;1276;22229;-45
2023/04/10 07:57:23;;;;;;;12.10;9.40;;;;;;;12.25;100.00;100667.19;109613;1273;22367;-46
2023/04/10 07:59:53;;;;;;;13.10;9.10;;;;;;;12.26;100.00;100661.76;109495;1275;22357;-46
2023/04/10 08:02:25;;;;;;;12.20;9.00;;;;;;;12.30;100.00;100657.20;108632;1274;22531;-45
2023/04/10 08:04:59;;;;;;;12.00;8.00;;;;;;;12.36;100.00;100657.38;108121;1280;22786;-55
2023/04/10 08:07:29;;;;;;;15.10;8.60;;;;;;;12.37;100.00;100660.52;109481;1274;22467;-45
2023/04/10 08:09:58;;;;;;;10.70;8.30;;;;;;;12.37;100.00;100656.85;109397;1276;22381;-56
2023/04/10 08:12:35;;;;;;;13.90;8.60;;;;;;;12.41;100.00;100653.86;109257;1275;23608;-46
2023/04/10 08:15:08;;;;;;;12.10;8.10;;;;;;;12.46;100.00;100650.35;109214;1275;22534;-45
2023/04/10 08:17:54;;;;;;;15.50;9.40;;;;;;;12.49;100.00;100653.15;108434;1281;22889;-45
2023/04/10 08:20:35;;;;;;;12.80;9.20;;;;;;;12.51;100.00;100651.55;108300;1281;23116;-46
2023/04/10 08:23:04;;;;;;;11.10;9.00;;;;;;;12.55;100.00;100648.06;109639;1281;22423;-46
2023/04/10 08:25:47;;;;;;;12.90;9.10;;;;;;;12.63;100.00;100646.81;109068;1268;22629;-47
2023/04/10 08:28:18;;;;;;;10.80;8.00;;;;;;;12.69;100.00;100643.48;109524;1275;22435;-46
2023/04/10 08:30:47;;;;;;;8.90;7.50;;;;;;;12.72;100.00;100644.52;109442;1275;23024;-63
2023/04/10 08:33:16;;;;;;;9.40;6.70;;;;;;;12.66;100.00;100645.76;109265;1275;23253;-56
2023/04/10 08:35:47;;;;;;;7.40;6.10;;;;;;;12.55;100.00;100647.36;109090;1273;22217;-55
2023/04/10 08:38:23;;;;;;;11.10;6.30;;;;;;;12.46;100.00;100645.63;109098;1275;22412;-55
2023/04/10 08:40:51;;;;;;;14.00;7.40;;;;;;;12.43;100.00;100644.08;108351;1275;22523;-56
2023/04/10 08:43:20;;;;;;;12.60;7.10;;;;;;;12.38;100.00;100643.38;109554;1273;22818;-46
2023/04/10 08:45:54;;;;;;;13.30;7.30;;;;;;;12.35;100.00;100646.02;109402;1274;22835;-45
2023/04/10 08:48:26;;;;;;;11.60;7.50;;;;;;;12.34;100.00;100643.02;108815;1275;22442;-46
2023/04/10 08:50:55;;;;;;;12.10;6.70;;;;;;;12.38;100.00;100640.39;109382;1280;22339;-45
2023/04/10 08:53:23;;;;;;;10.20;7.20;;;;;;;12.47;100.00;100638.28;109504;1275;23367;-46
2023/04/10 08:55:52;;;;;;;9.40;6.60;;;;;;;12.50;100.00;100633.38;109558;1275;22501;-46
2023/04/10 08:58:20;;;;;;;9.40;6.90;;;;;;;12.53;100.00;100631.27;109501;1266;22965;-45
2023/04/10 09:00:49;;;;;;;9.60;6.80;;;;;;;12.62;100.00;100626.52;109683;1279;22379;-46
2023/04/10 09:03:20;;;;;;;11.40;7.70;;;;;;;12.73;100.00;100625.78;109657;1276;22443;-45
2023/04/10 09:05:49;;;;;;;10.20;7.30;;;;;;;12.87;100.00;100623.29;109821;1273;22524;-45
2023/04/10 09:08:18;;;;;;;9.60;7.10;;;;;;;13.03;100.00;100620.40;109049;1275;22384;-54
2023/04/10 09:10:50;;;;;;;18.90;6.40;;;;;;;13.23;100.00;100618.91;109576;1276;22318;-56
2023/04/10 09:13:34;;;;;;;7.60;5.50;;;;;;;13.42;100.00;100622.13;109698;1278;22335;-54
2023/04/10 09:16:05;;;;;;;9.30;5.80;;;;;;;13.59;98.94;100616.07;109741;1275;22321;-55
2023/04/10 09:18:50;;;;;;;11.20;6.30;;;;;;;13.66;97.53;100619.16;109637;1281;22448;-54
2023/04/10 09:21:20;;;;;;;10.90;7.20;;;;;;;13.66;95.92;100620.22;109388;1267;22543;-46
2023/04/10 09:23:58;;;;;;;10.10;6.80;;;;;;;13.61;95.56;100619.73;109362;1281;25489;-47
2023/04/10 09:26:27;;;;;;;9.70;7.30;;;;;;;13.62;96.05;100622.01;109135;1276;24255;-55
2023/04/10 09:29:06;;;;;;;10.00;6.80;;;;;;;13.72;96.19;100618.42;109805;1276;26623;-55
2023/04/10 09:31:36;;;;;;;16.00;8.80;;;;;;;13.85;96.04;100613.23;108213;1281;22303;-46
2023/04/10 09:34:27;;;;;;;9.00;7.10;;;;;;;13.98;95.88;100611.55;109352;1275;22902;-48
2023/04/10 09:37:03;;;;;;;12.70;7.10;;;;;;;14.13;94.14;100603.52;109334;1276;23129;-54
2023/04/10 09:40:12;;;;;;;11.90;7.50;;;;;;;14.23;93.78;100599.91;109181;1275;22555;-54
2023/04/10 09:47:30;;;;;;;8.60;6.90;;;;;;;14.68;90.67;100593.29;109503;1281;22446;-45
2023/04/10 09:50:06;;;;;;;12.30;7.30;;;;;;;14.88;90.28;100589.17;109546;1278;23070;-45
2023/04/10 09:52:40;;;;;;;11.40;7.00;;;;;;;15.06;89.41;100585.77;109471;1278;23180;-46
2023/04/10 09:55:10;;;;;;;16.50;7.40;;;;;;;15.21;88.22;100581.87;109519;1281;23102;-46
2023/04/10 09:57:50;;;;;;;8.50;6.90;;;;;;;15.32;86.68;100579.96;109270;1281;22748;-45
2023/04/10 10:00:19;;;;;;;13.00;7.30;;;;;;;15.26;83.68;100579.52;109489;1275;22352;-49
2023/04/10 10:02:50;;;;;;;10.10;7.40;;;;;;;15.11;82.32;100579.21;109455;1282;22348;-46
2023/04/10 10:05:31;;;;;;;17.30;10.00;;;;;;;14.98;82.45;100579.04;108962;1280;22551;-55
2023/04/10 10:08:01;;;;;;;10.60;8.20;;;;;;;14.92;82.19;100578.77;109349;1282;22302;-55
2023/04/10 10:10:30;;;;;;;11.60;7.60;;;;;;;14.90;82.54;100576.15;109763;1275;22563;-46
2023/04/10 10:13:01;;;;;;;13.10;8.20;;;;;;;14.97;83.22;100571.32;109536;1276;22305;-46
2023/04/10 10:15:50;;;;;;;13.20;7.80;;;;;;;15.10;84.29;100570.61;109697;1281;22891;-54
2023/04/10 10:18:22;;;;;;;11.10;8.00;;;;;;;15.25;83.90;100570.93;109609;1281;22230;-56
2023/04/10 10:20:50;;;;;;;13.90;8.60;;;;;;;15.32;83.50;100573.97;109620;1279;22384;-55
2023/04/10 10:23:25;;;;;;;12.30;7.40;;;;;;;15.48;83.24;100567.93;109408;1280;23240;-55
2023/04/10 10:25:53;;;;;;;8.80;7.70;;;;;;;15.79;82.00;100563.94;108524;1277;23140;-46
2023/04/10 10:28:21;;;;;;;11.40;7.60;;;;;;;16.17;80.68;100565.20;108303;1281;22529;-47
2023/04/10 10:30:50;;;;;;;14.30;7.60;;;;;;;16.49;77.80;100561.95;109212;1278;22457;-56
2023/04/10 10:33:19;;;;;;;9.20;6.20;;;;;;;16.62;77.07;100559.20;109516;1282;22418;-52
2023/04/10 10:35:48;;;;;;;8.50;6.70;;;;;;;16.71;76.20;100557.98;109698;1281;22284;-58
2023/04/10 10:38:17;;;;;;;9.30;6.80;;;;;;;16.79;74.92;100558.35;109265;1269;23136;-55
2023/04/10 10:41:15;;;;;;;9.80;6.80;;;;;;;16.88;73.76;100559.20;109572;1276;22409;-54
2023/04/10 10:43:43;;;;;;;11.30;6.50;;;;;;;16.89;72.93;100553.93;109272;1281;22658;-45
2023/04/10 10:46:18;;;;;;;11.20;6.50;;;;;;;16.82;72.36;100554.59;109736;1282;23113;-47
2023/04/10 10:48:59;;;;;;;11.60;7.70;;;;;;;16.66;72.25;100552.27;109576;1281;22994;-46
2023/04/10 10:51:49;;;;;;;10.70;7.10;;;;;;;16.73;72.00;100553.72;109580;1276;23265;-47
2023/04/10 10:54:31;;;;;;;10.30;6.20;;;;;;;17.00;71.15;100548.55;108747;1282;22404;-56
2023/04/10 10:57:08;;;;;;;13.10;7.20;;;;;;;17.26;67.96;100547.79;109526;1278;23049;-47
2023/04/10 10:59:42;;;;;;;10.90;5.90;;;;;;;17.33;66.64;100548.16;109331;1280;22303;-46
2023/04/10 11:02:16;;;;;;;10.70;6.20;;;;;;;17.30;65.66;100548.05;109701;1282;23456;-46
2023/04/10 11:04:47;;;;;;;12.10;6.60;;;;;;;17.20;66.74;100547.05;109595;1276;131405;-56
2023/04/10 11:07:15;;;;;;;10.60;6.90;;;;;;;17.11;66.71;100540.55;109496;1278;22317;-46
2023/04/10 11:09:52;;;;;;;17.80;7.60;;;;;;;16.91;65.67;100540.13;109704;1282;23020;-46
2023/04/10 11:12:24;;;;;;;12.70;7.00;;;;;;;16.63;65.92;100540.90;109684;1275;22322;-56
2023/04/10 11:15:00;;;;;;;12.30;6.80;;;;;;;16.46;66.30;100538.92;109573;1283;22277;-46
2023/04/10 11:17:52;;;;;;;12.20;6.70;;;;;;;16.65;66.33;100529.74;109765;1282;23028;-52
2023/04/10 11:20:26;;;;;;;8.30;5.70;;;;;;;17.12;66.57;100523.44;109669;1282;22195;-45
2023/04/10 11:23:10;;;;;;;11.70;7.50;;;;;;;17.47;65.83;100525.05;109652;1282;22311;-54
2023/04/10 11:25:52;;;;;;;10.30;6.50;;;;;;;17.60;64.54;100522.27;108101;1282;24817;-47
2023/04/10 11:28:37;;;;;;;10.40;6.80;;;;;;;17.54;63.91;100523.84;108593;1282;22296;-55
2023/04/10 11:31:21;;;;;;;12.80;7.30;;;;;;;17.55;64.20;100518.70;109645;1283;22198;-46
2023/04/10 11:34:00;;;;;;;13.50;6.70;;;;;;;17.58;63.62;100524.45;109839;1277;22154;-46
2023/04/10 11:36:28;;;;;;;12.30;7.50;;;;;;;17.55;62.68;100518.85;109264;1278;22286;-45
2023/04/10 11:38:56;;;;;;;15.10;6.90;;;;;;;17.38;62.79;100520.71;109902;1282;22918;-45
2023/04/10 11:41:29;;;;;;;16.60;8.00;;;;;;;17.17;62.84;100522.09;108558;1282;22519;-46
2023/04/10 11:44:01;;;;;;;12.70;8.10;;;;;;;16.99;63.96;100521.98;107399;1282;22251;-55
2023/04/10 11:46:30;;;;;;;12.30;7.40;;;;;;;16.90;65.54;100517.05;106957;1282;24194;-44
2023/04/10 11:49:00;;;;;;;17.40;7.70;;;;;;;16.77;65.62;100517.88;109789;1282;22399;-45
2023/04/10 11:51:29;;;;;;;12.50;7.60;;;;;;;16.62;66.04;100515.54;109854;1282;22312;-55
2023/04/10 11:54:20;;;;;;;18.50;8.50;;;;;;;16.49;66.00;100516.16;108465;1282;22535;-46
2023/04/10 11:57:00;;;;;;;13.10;8.80;;;;;;;16.32;66.08;100512.98;108657;1282;22378;-46
2023/04/10 11:59:29;;;;;;;16.00;9.30;;;;;;;16.17;66.93;100510.11;109320;1282;22310;-54
2023/04/10 12:02:08;;;;;;;20.10;9.70;;;;;;;16.04;67.74;100506.67;109350;1282;23456;-47
2023/04/10 12:04:36;;;;;;;19.10;10.30;;;;;;;15.95;68.24;100507.38;109885;1282;22304;-54
2023/04/10 12:07:06;;;;;;;20.80;11.30;;;;;;;15.95;68.27;100505.63;109898;1282;23196;-45
2023/04/10 12:09:35;;;;;;;17.00;10.40;;;;;;;15.98;68.53;100501.16;108978;1282;23266;-47
2023/04/10 12:12:04;;;;;;;15.80;10.80;;;;;;;16.07;68.23;100494.13;109892;1282;22283;-46
2023/04/10 12:14:35;;;;;;;19.70;10.80;;;;;;;16.16;68.06;100491.65;107724;1282;25389;-55
2023/04/10 12:17:05;;;;;;;17.70;11.80;;;;;;;16.29;67.94;100488.59;107252;1282;22530;-54
2023/04/10 12:19:52;;;;;;;17.40;11.40;;;;;;;16.35;68.03;100486.88;107384;1281;22661;-56
2023/04/10 12:22:21;;;;;;;17.90;9.90;;;;;;;16.40;67.65;100486.24;108921;1282;23154;-46
2023/04/10 12:24:53;;;;;;;13.40;8.70;;;;;;;16.49;67.34;100476.36;109867;1282;22355;-46
2023/04/10 12:27:22;;;;;;;17.00;8.30;;;;;;;16.58;65.69;100471.25;109329;1282;26055;-56
2023/04/10 12:29:53;;;;;;;13.60;7.90;;;;;;;16.63;65.20;100469.73;108114;1282;22183;-47
2023/04/10 12:32:21;;;;;;;11.50;7.30;;;;;;;16.64;65.76;100467.60;109897;1282;22273;-56
2023/04/10 12:34:56;;;;;;;10.70;7.20;;;;;;;16.58;65.63;100467.20;109864;1282;22279;-55
2023/04/10 12:37:24;;;;;;;12.20;7.30;;;;;;;16.50;65.77;100463.86;109811;1283;22179;-56
2023/04/10 12:40:06;;;;;;;10.40;7.10;;;;;;;16.34;66.00;100465.42;109648;1282;22654;-55
2023/04/10 12:42:39;;;;;;;12.30;7.60;;;;;;;16.14;66.93;100462.67;109879;1282;23166;-46
2023/04/10 12:45:08;;;;;;;10.40;6.60;;;;;;;16.00;67.43;100462.95;109866;1282;22158;-46
2023/04/10 12:47:45;;;;;;;8.80;6.60;;;;;;;15.90;68.24;100457.34;109877;1282;22973;-56
2023/04/10 12:50:17;;;;;;;15.90;6.60;;;;;;;15.87;68.96;100453.86;108347;1282;25387;-46
2023/04/10 12:53:07;;;;;;;8.30;6.50;;;;;;;15.93;69.43;100449.71;108567;1282;22728;-56
2023/04/10 12:55:36;;;;;;;10.90;6.60;;;;;;;16.17;69.45;100450.99;109886;1283;22274;-46
2023/04/10 12:58:18;;;;;;;9.70;6.40;;;;;;;16.43;68.92;100454.50;108332;1283;24186;-55
2023/04/10 13:00:47;;;;;;;9.40;6.00;;;;;;;16.60;67.58;100462.04;106654;1282;22928;-56
2023/04/10 13:03:16;;;;;;;14.10;6.20;;;;;;;16.38;67.75;100466.73;106904;1282;25371;-54
2023/04/10 13:05:44;;;;;;;10.80;6.70;;;;;;;15.93;69.94;100472.56;106763;1282;22513;-46
2023/04/10 13:08:13;;;;;;;8.70;5.70;;;;;;;15.44;71.58;100467.99;107443;1282;25288;-46
2023/04/10 13:10:42;;;;;;;10.40;6.60;;;;;;;14.96;72.12;100466.13;107386;1282;25453;-45
2023/04/10 13:13:13;;;;;;;16.90;7.10;;;;;;;14.58;73.72;100462.12;106988;1282;22481;-55
2023/04/10 13:15:41;;;;;;;15.20;7.10;;;;;;;14.24;74.96;100456.20;107583;1282;23021;-45
2023/04/10 13:18:10;;;;;;;15.60;7.60;;;;;;;14.01;76.35;100452.45;107264;1282;22536;-45
2023/04/10 13:20:39;;;;;;;13.00;7.30;;;;;;;13.86;76.98;100446.14;107404;1282;24761;-56
2023/04/10 13:23:08;;;;;;;13.90;8.10;;;;;;;13.78;78.15;100443.25;107491;1282;24333;-47
2023/04/10 13:25:38;;;;;;;11.00;6.70;;;;;;;13.74;79.01;100436.98;107566;1283;25340;-48
